sensor_id;sensor_type;location;lat;lon;timestamp;temperature;humidity
17385;DHT22;8810;48.680;8.894;2022-11-15T00:01:08;6.50;99.90
17385;DHT22;8810;48.680;8.894;2022-11-15T00:03:34;6.50;99.90
17385;DHT22;8810;48.680;8.894;2022-11-15T00:06:04;6.50;99.90
17385;DHT22;8810;48.680;8.894;2022-11-15T00:08:31;6.50;99.90
17385;DHT22;8810;48.680;8.894;2022-11-15T00:10:59;6.50;99.90
17385;DHT22;8810;48.680;8.894;2022-11-15T00:13:27;6.40;99.90
17385;DHT22;8810;48.680;8.894;2022-11-15T00:15:56;6.40;99.90
17385;DHT22;8810;48.680;8.894;2022-11-15T00:18:23;6.40;99.90
17385;DHT22;8810;48.680;8.894;2022-11-15T00:20:50;6.40;99.90
17385;DHT22;8810;48.680;8.894;2022-11-15T00:23:18;6.40;99.90
17385;DHT22;8810;48.680;8.894;2022-11-15T00:25:45;6.40;99.90
17385;DHT22;8810;48.680;8.894;2022-11-15T00:28:12;6.30;99.90
17385;DHT22;8810;48.680;8.894;2022-11-15T00:30:39;6.30;99.90
17385;DHT22;8810;48.680;8.894;2022-11-15T00:33:06;6.30;99.90
17385;DHT22;8810;48.680;8.894;2022-11-15T00:35:34;6.30;99.90
17385;DHT22;8810;48.680;8.894;2022-11-15T00:38:01;6.30;99.90
17385;DHT22;8810;48.680;8.894;2022-11-15T00:40:30;6.30;99.90
17385;DHT22;8810;48.680;8.894;2022-11-15T00:42:56;6.30;99.90
17385;DHT22;8810;48.680;8.894;2022-11-15T00:45:24;6.30;99.90
17385;DHT22;8810;48.680;8.894;2022-11-15T00:47:51;6.20;99.90
17385;DHT22;8810;48.680;8.894;2022-11-15T00:50:18;6.20;99.90
17385;DHT22;8810;48.680;8.894;2022-11-15T00:52:45;6.20;99.90
17385;DHT22;8810;48.680;8.894;2022-11-15T00:55:16;6.10;99.90
17385;DHT22;8810;48.680;8.894;2022-11-15T00:57:45;6.10;99.90
17385;DHT22;8810;48.680;8.894;2022-11-15T01:00:13;6.10;99.90
17385;DHT22;8810;48.680;8.894;2022-11-15T01:02:40;6.00;99.90
17385;DHT22;8810;48.680;8.894;2022-11-15T01:05:08;6.00;99.90
17385;DHT22;8810;48.680;8.894;2022-11-15T01:07:35;6.00;99.90
17385;DHT22;8810;48.680;8.894;2022-11-15T01:10:02;5.90;99.90
17385;DHT22;8810;48.680;8.894;2022-11-15T01:12:29;5.90;99.90
17385;DHT22;8810;48.680;8.894;2022-11-15T01:14:57;5.80;99.90
17385;DHT22;8810;48.680;8.894;2022-11-15T01:17:25;5.80;99.90
17385;DHT22;8810;48.680;8.894;2022-11-15T01:19:51;5.80;99.90
17385;DHT22;8810;48.680;8.894;2022-11-15T01:22:18;5.70;99.90
17385;DHT22;8810;48.680;8.894;2022-11-15T01:24:45;5.70;99.90
17385;DHT22;8810;48.680;8.894;2022-11-15T01:27:12;5.70;99.90
17385;DHT22;8810;48.680;8.894;2022-11-15T01:29:39;5.70;99.90
17385;DHT22;8810;48.680;8.894;2022-11-15T01:32:07;5.60;99.90
17385;DHT22;8810;48.680;8.894;2022-11-15T01:34:33;5.60;99.90
17385;DHT22;8810;48.680;8.894;2022-11-15T01:37:01;5.60;99.90
17385;DHT22;8810;48.680;8.894;2022-11-15T01:39:28;5.70;99.90
17385;DHT22;8810;48.680;8.894;2022-11-15T01:41:54;5.60;99.90
17385;DHT22;8810;48.680;8.894;2022-11-15T01:44:43;5.70;99.90
17385;DHT22;8810;48.680;8.894;2022-11-15T01:47:15;5.70;99.90
17385;DHT22;8810;48.680;8.894;2022-11-15T01:49:51;5.70;99.90
17385;DHT22;8810;48.680;8.894;2022-11-15T01:52:20;5.70;99.90
17385;DHT22;8810;48.680;8.894;2022-11-15T01:54:53;5.70;99.90
17385;DHT22;8810;48.680;8.894;2022-11-15T01:57:22;5.80;99.90
17385;DHT22;8810;48.680;8.894;2022-11-15T01:59:49;5.80;99.90
17385;DHT22;8810;48.680;8.894;2022-11-15T02:02:17;5.80;99.90
17385;DHT22;8810;48.680;8.894;2022-11-15T02:04:46;5.80;99.90
17385;DHT22;8810;48.680;8.894;2022-11-15T02:07:15;5.80;99.90
17385;DHT22;8810;48.680;8.894;2022-11-15T02:09:45;5.70;99.90
17385;DHT22;8810;48.680;8.894;2022-11-15T02:12:15;5.70;99.90
17385;DHT22;8810;48.680;8.894;2022-11-15T02:14:45;5.70;99.90
17385;DHT22;8810;48.680;8.894;2022-11-15T02:17:36;5.70;99.90
17385;DHT22;8810;48.680;8.894;2022-11-15T02:23:28;5.60;99.90
17385;DHT22;8810;48.680;8.894;2022-11-15T02:26:09;5.60;99.90
17385;DHT22;8810;48.680;8.894;2022-11-15T02:28:51;5.60;99.90
17385;DHT22;8810;48.680;8.894;2022-11-15T02:31:27;5.60;99.90
17385;DHT22;8810;48.680;8.894;2022-11-15T02:34:00;5.60;99.90
17385;DHT22;8810;48.680;8.894;2022-11-15T02:36:36;5.60;99.90
17385;DHT22;8810;48.680;8.894;2022-11-15T02:39:10;5.60;99.90
17385;DHT22;8810;48.680;8.894;2022-11-15T02:41:41;5.60;99.90
17385;DHT22;8810;48.680;8.894;2022-11-15T02:44:16;5.60;99.90
17385;DHT22;8810;48.680;8.894;2022-11-15T02:46:48;5.60;99.90
17385;DHT22;8810;48.680;8.894;2022-11-15T02:49:34;5.60;99.90
17385;DHT22;8810;48.680;8.894;2022-11-15T02:52:01;5.60;99.90
17385;DHT22;8810;48.680;8.894;2022-11-15T02:54:30;5.60;99.90
17385;DHT22;8810;48.680;8.894;2022-11-15T02:57:02;5.60;99.90
17385;DHT22;8810;48.680;8.894;2022-11-15T02:59:48;5.60;99.90
17385;DHT22;8810;48.680;8.894;2022-11-15T03:02:29;5.70;99.90
17385;DHT22;8810;48.680;8.894;2022-11-15T03:05:01;5.70;99.90
17385;DHT22;8810;48.680;8.894;2022-11-15T03:07:35;5.70;99.90
17385;DHT22;8810;48.680;8.894;2022-11-15T03:10:08;5.70;99.90
17385;DHT22;8810;48.680;8.894;2022-11-15T03:12:40;5.70;99.90
17385;DHT22;8810;48.680;8.894;2022-11-15T03:15:10;5.70;99.90
17385;DHT22;8810;48.680;8.894;2022-11-15T03:17:43;5.70;99.90
17385;DHT22;8810;48.680;8.894;2022-11-15T03:20:14;5.80;99.90
17385;DHT22;8810;48.680;8.894;2022-11-15T03:22:44;5.80;99.90
17385;DHT22;8810;48.680;8.894;2022-11-15T03:25:17;5.80;99.90
17385;DHT22;8810;48.680;8.894;2022-11-15T03:27:49;5.80;99.90
17385;DHT22;8810;48.680;8.894;2022-11-15T03:30:17;5.80;99.90
17385;DHT22;8810;48.680;8.894;2022-11-15T03:32:47;5.70;99.90
17385;DHT22;8810;48.680;8.894;2022-11-15T03:35:19;5.70;99.90
17385;DHT22;8810;48.680;8.894;2022-11-15T03:37:51;5.70;99.90
17385;DHT22;8810;48.680;8.894;2022-11-15T03:40:21;5.70;99.90
17385;DHT22;8810;48.680;8.894;2022-11-15T03:42:58;5.70;99.90
17385;DHT22;8810;48.680;8.894;2022-11-15T03:45:29;5.60;99.90
17385;DHT22;8810;48.680;8.894;2022-11-15T03:48:02;5.60;99.90
17385;DHT22;8810;48.680;8.894;2022-11-15T03:50:32;5.60;99.90
17385;DHT22;8810;48.680;8.894;2022-11-15T03:52:59;5.60;99.90
17385;DHT22;8810;48.680;8.894;2022-11-15T03:55:26;5.60;99.90
17385;DHT22;8810;48.680;8.894;2022-11-15T03:57:55;5.60;99.90
17385;DHT22;8810;48.680;8.894;2022-11-15T04:00:24;5.60;99.90
17385;DHT22;8810;48.680;8.894;2022-11-15T04:02:51;5.60;99.90
17385;DHT22;8810;48.680;8.894;2022-11-15T04:05:19;5.60;99.90
17385;DHT22;8810;48.680;8.894;2022-11-15T04:07:46;5.60;99.90
17385;DHT22;8810;48.680;8.894;2022-11-15T04:10:13;5.60;99.90
17385;DHT22;8810;48.680;8.894;2022-11-15T04:12:41;5.60;99.90
17385;DHT22;8810;48.680;8.894;2022-11-15T04:15:10;5.60;99.90
17385;DHT22;8810;48.680;8.894;2022-11-15T04:17:40;5.60;99.90
17385;DHT22;8810;48.680;8.894;2022-11-15T04:20:10;5.60;99.90
17385;DHT22;8810;48.680;8.894;2022-11-15T04:22:57;5.60;99.90
17385;DHT22;8810;48.680;8.894;2022-11-15T04:25:42;5.70;99.90
17385;DHT22;8810;48.680;8.894;2022-11-15T04:28:10;5.70;99.90
17385;DHT22;8810;48.680;8.894;2022-11-15T04:30:37;5.70;99.90
17385;DHT22;8810;48.680;8.894;2022-11-15T04:33:04;5.80;99.90
17385;DHT22;8810;48.680;8.894;2022-11-15T04:35:31;5.80;99.90
17385;DHT22;8810;48.680;8.894;2022-11-15T04:37:59;5.80;99.90
17385;DHT22;8810;48.680;8.894;2022-11-15T04:40:25;5.80;99.90
17385;DHT22;8810;48.680;8.894;2022-11-15T04:42:52;5.80;99.90
17385;DHT22;8810;48.680;8.894;2022-11-15T04:45:19;5.80;99.90
17385;DHT22;8810;48.680;8.894;2022-11-15T04:47:46;5.80;99.90
17385;DHT22;8810;48.680;8.894;2022-11-15T04:50:14;5.80;99.90
17385;DHT22;8810;48.680;8.894;2022-11-15T04:52:41;5.80;99.90
17385;DHT22;8810;48.680;8.894;2022-11-15T04:55:10;5.80;99.90
17385;DHT22;8810;48.680;8.894;2022-11-15T04:57:37;5.80;99.90
17385;DHT22;8810;48.680;8.894;2022-11-15T05:00:06;5.80;99.90
17385;DHT22;8810;48.680;8.894;2022-11-15T05:02:33;5.80;99.90
17385;DHT22;8810;48.680;8.894;2022-11-15T05:05:17;5.80;99.90
17385;DHT22;8810;48.680;8.894;2022-11-15T05:07:44;5.80;99.90
17385;DHT22;8810;48.680;8.894;2022-11-15T05:10:13;5.80;99.90
17385;DHT22;8810;48.680;8.894;2022-11-15T05:12:39;5.80;99.90
17385;DHT22;8810;48.680;8.894;2022-11-15T05:15:07;5.80;99.90
17385;DHT22;8810;48.680;8.894;2022-11-15T05:17:34;5.80;99.90
17385;DHT22;8810;48.680;8.894;2022-11-15T05:20:01;5.80;99.90
17385;DHT22;8810;48.680;8.894;2022-11-15T05:22:28;5.80;99.90
17385;DHT22;8810;48.680;8.894;2022-11-15T05:24:55;5.80;99.90
17385;DHT22;8810;48.680;8.894;2022-11-15T05:27:23;5.90;99.90
17385;DHT22;8810;48.680;8.894;2022-11-15T05:29:49;5.90;99.90
17385;DHT22;8810;48.680;8.894;2022-11-15T05:32:16;5.90;99.90
17385;DHT22;8810;48.680;8.894;2022-11-15T05:34:44;5.90;99.90
17385;DHT22;8810;48.680;8.894;2022-11-15T05:37:12;5.90;99.90
17385;DHT22;8810;48.680;8.894;2022-11-15T05:39:39;5.90;99.90
17385;DHT22;8810;48.680;8.894;2022-11-15T05:42:09;5.90;99.90
17385;DHT22;8810;48.680;8.894;2022-11-15T05:44:40;5.90;99.90
17385;DHT22;8810;48.680;8.894;2022-11-15T05:47:11;5.80;99.90
17385;DHT22;8810;48.680;8.894;2022-11-15T05:49:41;5.80;99.90
17385;DHT22;8810;48.680;8.894;2022-11-15T05:52:11;5.80;99.90
17385;DHT22;8810;48.680;8.894;2022-11-15T05:54:41;5.80;99.90
17385;DHT22;8810;48.680;8.894;2022-11-15T05:57:08;5.70;99.90
17385;DHT22;8810;48.680;8.894;2022-11-15T05:59:35;5.70;99.90
17385;DHT22;8810;48.680;8.894;2022-11-15T06:02:04;5.70;99.90
17385;DHT22;8810;48.680;8.894;2022-11-15T06:04:30;5.70;99.90
17385;DHT22;8810;48.680;8.894;2022-11-15T06:06:58;5.70;99.90
17385;DHT22;8810;48.680;8.894;2022-11-15T06:09:25;5.60;99.90
17385;DHT22;8810;48.680;8.894;2022-11-15T06:11:52;5.60;99.90
17385;DHT22;8810;48.680;8.894;2022-11-15T06:14:19;5.60;99.90
17385;DHT22;8810;48.680;8.894;2022-11-15T06:16:46;5.60;99.90
17385;DHT22;8810;48.680;8.894;2022-11-15T06:19:14;5.60;99.90
17385;DHT22;8810;48.680;8.894;2022-11-15T06:21:41;5.60;99.90
17385;DHT22;8810;48.680;8.894;2022-11-15T06:24:07;5.60;99.90
17385;DHT22;8810;48.680;8.894;2022-11-15T06:26:34;5.60;99.90
17385;DHT22;8810;48.680;8.894;2022-11-15T06:29:02;5.60;99.90
17385;DHT22;8810;48.680;8.894;2022-11-15T06:31:29;5.50;99.90
17385;DHT22;8810;48.680;8.894;2022-11-15T06:33:56;5.50;99.90
17385;DHT22;8810;48.680;8.894;2022-11-15T06:36:24;5.50;99.90
17385;DHT22;8810;48.680;8.894;2022-11-15T06:38:51;5.60;99.90
17385;DHT22;8810;48.680;8.894;2022-11-15T06:41:18;5.60;99.90
17385;DHT22;8810;48.680;8.894;2022-11-15T06:43:46;5.60;99.90
17385;DHT22;8810;48.680;8.894;2022-11-15T06:46:13;5.60;99.90
17385;DHT22;8810;48.680;8.894;2022-11-15T06:48:40;5.60;99.90
17385;DHT22;8810;48.680;8.894;2022-11-15T06:51:07;5.60;99.90
17385;DHT22;8810;48.680;8.894;2022-11-15T06:53:35;5.70;99.90
17385;DHT22;8810;48.680;8.894;2022-11-15T06:56:03;5.70;99.90
17385;DHT22;8810;48.680;8.894;2022-11-15T06:58:30;5.70;99.90
17385;DHT22;8810;48.680;8.894;2022-11-15T07:01:00;5.70;99.90
17385;DHT22;8810;48.680;8.894;2022-11-15T07:03:27;5.70;99.90
17385;DHT22;8810;48.680;8.894;2022-11-15T07:05:55;5.70;99.90
17385;DHT22;8810;48.680;8.894;2022-11-15T07:08:23;5.70;99.90
17385;DHT22;8810;48.680;8.894;2022-11-15T07:10:51;5.70;99.90
17385;DHT22;8810;48.680;8.894;2022-11-15T07:13:18;5.70;99.90
17385;DHT22;8810;48.680;8.894;2022-11-15T07:15:45;5.80;99.90
17385;DHT22;8810;48.680;8.894;2022-11-15T07:18:11;5.80;99.90
17385;DHT22;8810;48.680;8.894;2022-11-15T07:20:38;5.80;99.90
17385;DHT22;8810;48.680;8.894;2022-11-15T07:23:06;5.90;99.90
17385;DHT22;8810;48.680;8.894;2022-11-15T07:25:33;6.00;99.90
17385;DHT22;8810;48.680;8.894;2022-11-15T07:28:01;6.00;99.90
17385;DHT22;8810;48.680;8.894;2022-11-15T07:30:29;6.20;99.90
17385;DHT22;8810;48.680;8.894;2022-11-15T07:32:56;6.20;99.90
17385;DHT22;8810;48.680;8.894;2022-11-15T07:35:23;6.30;99.90
17385;DHT22;8810;48.680;8.894;2022-11-15T07:37:55;6.40;99.90
17385;DHT22;8810;48.680;8.894;2022-11-15T07:40:22;6.60;99.90
17385;DHT22;8810;48.680;8.894;2022-11-15T07:42:49;6.70;99.90
17385;DHT22;8810;48.680;8.894;2022-11-15T07:45:20;6.80;99.90
17385;DHT22;8810;48.680;8.894;2022-11-15T07:47:48;6.90;99.90
17385;DHT22;8810;48.680;8.894;2022-11-15T07:50:15;7.00;99.90
17385;DHT22;8810;48.680;8.894;2022-11-15T07:52:42;7.10;99.90
17385;DHT22;8810;48.680;8.894;2022-11-15T07:55:09;7.30;99.90
17385;DHT22;8810;48.680;8.894;2022-11-15T07:57:36;7.50;99.90
17385;DHT22;8810;48.680;8.894;2022-11-15T08:00:04;7.70;99.90
17385;DHT22;8810;48.680;8.894;2022-11-15T08:02:32;7.90;99.90
17385;DHT22;8810;48.680;8.894;2022-11-15T08:04:59;8.10;99.90
17385;DHT22;8810;48.680;8.894;2022-11-15T08:07:28;8.40;99.90
17385;DHT22;8810;48.680;8.894;2022-11-15T08:09:55;8.60;99.90
17385;DHT22;8810;48.680;8.894;2022-11-15T08:12:22;8.80;99.90
17385;DHT22;8810;48.680;8.894;2022-11-15T08:14:50;9.00;99.90
17385;DHT22;8810;48.680;8.894;2022-11-15T08:17:16;9.30;99.90
17385;DHT22;8810;48.680;8.894;2022-11-15T08:19:45;9.50;99.90
17385;DHT22;8810;48.680;8.894;2022-11-15T08:22:11;9.70;99.90
17385;DHT22;8810;48.680;8.894;2022-11-15T08:24:38;10.00;99.90
17385;DHT22;8810;48.680;8.894;2022-11-15T08:27:05;10.30;99.90
17385;DHT22;8810;48.680;8.894;2022-11-15T08:29:40;10.50;99.90
17385;DHT22;8810;48.680;8.894;2022-11-15T08:32:07;10.70;99.90
17385;DHT22;8810;48.680;8.894;2022-11-15T08:34:34;10.80;99.90
17385;DHT22;8810;48.680;8.894;2022-11-15T08:37:02;11.00;99.90
17385;DHT22;8810;48.680;8.894;2022-11-15T08:39:29;11.20;99.90
17385;DHT22;8810;48.680;8.894;2022-11-15T08:41:56;11.40;99.90
17385;DHT22;8810;48.680;8.894;2022-11-15T08:44:22;11.50;99.90
17385;DHT22;8810;48.680;8.894;2022-11-15T08:46:50;11.60;99.90
17385;DHT22;8810;48.680;8.894;2022-11-15T08:49:17;11.60;99.90
17385;DHT22;8810;48.680;8.894;2022-11-15T08:51:43;11.60;99.90
17385;DHT22;8810;48.680;8.894;2022-11-15T08:54:12;11.70;99.90
17385;DHT22;8810;48.680;8.894;2022-11-15T08:56:38;11.90;99.90
17385;DHT22;8810;48.680;8.894;2022-11-15T08:59:05;12.00;99.90
17385;DHT22;8810;48.680;8.894;2022-11-15T09:01:32;12.10;99.90
17385;DHT22;8810;48.680;8.894;2022-11-15T09:03:59;12.10;99.90
17385;DHT22;8810;48.680;8.894;2022-11-15T09:06:26;12.00;99.90
17385;DHT22;8810;48.680;8.894;2022-11-15T09:08:53;11.90;99.90
17385;DHT22;8810;48.680;8.894;2022-11-15T09:11:21;11.80;99.90
17385;DHT22;8810;48.680;8.894;2022-11-15T09:13:48;11.70;99.90
17385;DHT22;8810;48.680;8.894;2022-11-15T09:16:15;11.60;99.90
17385;DHT22;8810;48.680;8.894;2022-11-15T09:18:42;11.60;99.90
17385;DHT22;8810;48.680;8.894;2022-11-15T09:21:10;11.60;99.90
17385;DHT22;8810;48.680;8.894;2022-11-15T09:23:37;11.80;99.90
17385;DHT22;8810;48.680;8.894;2022-11-15T09:26:04;12.10;99.90
17385;DHT22;8810;48.680;8.894;2022-11-15T09:28:33;12.50;99.90
17385;DHT22;8810;48.680;8.894;2022-11-15T09:31:02;12.80;99.90
17385;DHT22;8810;48.680;8.894;2022-11-15T09:33:29;12.90;99.90
17385;DHT22;8810;48.680;8.894;2022-11-15T09:35:59;13.00;99.90
17385;DHT22;8810;48.680;8.894;2022-11-15T09:38:26;12.90;99.90
17385;DHT22;8810;48.680;8.894;2022-11-15T09:41:14;13.00;99.90
17385;DHT22;8810;48.680;8.894;2022-11-15T09:43:55;12.90;99.90
17385;DHT22;8810;48.680;8.894;2022-11-15T09:46:34;12.90;99.90
17385;DHT22;8810;48.680;8.894;2022-11-15T09:49:04;12.80;99.90
17385;DHT22;8810;48.680;8.894;2022-11-15T09:51:35;12.80;99.90
17385;DHT22;8810;48.680;8.894;2022-11-15T09:54:20;12.70;99.90
17385;DHT22;8810;48.680;8.894;2022-11-15T09:56:48;12.70;99.90
17385;DHT22;8810;48.680;8.894;2022-11-15T09:59:31;12.60;99.90
17385;DHT22;8810;48.680;8.894;2022-11-15T10:02:13;12.60;99.90
17385;DHT22;8810;48.680;8.894;2022-11-15T10:04:43;12.50;99.90
17385;DHT22;8810;48.680;8.894;2022-11-15T10:07:14;12.50;99.90
17385;DHT22;8810;48.680;8.894;2022-11-15T10:09:49;12.40;99.90
17385;DHT22;8810;48.680;8.894;2022-11-15T10:12:18;12.40;99.90
17385;DHT22;8810;48.680;8.894;2022-11-15T10:14:49;12.40;99.90
17385;DHT22;8810;48.680;8.894;2022-11-15T10:20:13;12.40;99.90
17385;DHT22;8810;48.680;8.894;2022-11-15T10:22:45;12.40;99.90
17385;DHT22;8810;48.680;8.894;2022-11-15T10:25:17;12.30;99.90
17385;DHT22;8810;48.680;8.894;2022-11-15T10:27:47;12.30;99.90
17385;DHT22;8810;48.680;8.894;2022-11-15T10:30:18;12.30;99.90
17385;DHT22;8810;48.680;8.894;2022-11-15T10:32:47;12.30;99.90
17385;DHT22;8810;48.680;8.894;2022-11-15T10:35:21;12.30;99.90
17385;DHT22;8810;48.680;8.894;2022-11-15T10:37:49;12.30;99.90
17385;DHT22;8810;48.680;8.894;2022-11-15T10:40:18;12.30;99.90
17385;DHT22;8810;48.680;8.894;2022-11-15T10:42:46;12.30;99.90
17385;DHT22;8810;48.680;8.894;2022-11-15T10:45:26;12.20;99.90
17385;DHT22;8810;48.680;8.894;2022-11-15T10:47:54;12.20;99.90
17385;DHT22;8810;48.680;8.894;2022-11-15T10:50:42;12.20;99.90
17385;DHT22;8810;48.680;8.894;2022-11-15T10:53:17;12.20;99.90
17385;DHT22;8810;48.680;8.894;2022-11-15T10:55:47;12.20;99.90
17385;DHT22;8810;48.680;8.894;2022-11-15T10:58:21;12.20;99.90
17385;DHT22;8810;48.680;8.894;2022-11-15T11:00:52;12.20;99.90
17385;DHT22;8810;48.680;8.894;2022-11-15T11:03:28;12.20;99.90
17385;DHT22;8810;48.680;8.894;2022-11-15T11:06:04;12.20;99.90
17385;DHT22;8810;48.680;8.894;2022-11-15T11:08:31;12.20;99.90
17385;DHT22;8810;48.680;8.894;2022-11-15T11:11:00;12.20;99.90
17385;DHT22;8810;48.680;8.894;2022-11-15T11:13:29;12.20;99.90
17385;DHT22;8810;48.680;8.894;2022-11-15T11:16:05;12.20;99.90
17385;DHT22;8810;48.680;8.894;2022-11-15T11:18:40;12.20;99.90
17385;DHT22;8810;48.680;8.894;2022-11-15T11:21:14;12.20;99.90
17385;DHT22;8810;48.680;8.894;2022-11-15T11:23:51;12.30;99.90
17385;DHT22;8810;48.680;8.894;2022-11-15T11:26:33;12.20;99.90
17385;DHT22;8810;48.680;8.894;2022-11-15T11:29:10;12.20;99.90
17385;DHT22;8810;48.680;8.894;2022-11-15T11:31:49;12.20;99.90
17385;DHT22;8810;48.680;8.894;2022-11-15T11:34:30;12.20;99.90
17385;DHT22;8810;48.680;8.894;2022-11-15T11:37:05;12.20;99.90
17385;DHT22;8810;48.680;8.894;2022-11-15T11:39:41;12.20;99.90
17385;DHT22;8810;48.680;8.894;2022-11-15T11:42:17;12.30;99.90
17385;DHT22;8810;48.680;8.894;2022-11-15T11:44:56;12.30;99.90
17385;DHT22;8810;48.680;8.894;2022-11-15T11:47:31;12.40;99.90
17385;DHT22;8810;48.680;8.894;2022-11-15T11:50:02;12.40;99.90
17385;DHT22;8810;48.680;8.894;2022-11-15T11:52:43;12.40;99.90
17385;DHT22;8810;48.680;8.894;2022-11-15T11:55:15;12.40;99.90
17385;DHT22;8810;48.680;8.894;2022-11-15T11:57:48;12.40;99.90
17385;DHT22;8810;48.680;8.894;2022-11-15T12:00:19;12.40;99.90
17385;DHT22;8810;48.680;8.894;2022-11-15T12:02:55;12.40;99.90
17385;DHT22;8810;48.680;8.894;2022-11-15T12:05:31;12.40;99.90
17385;DHT22;8810;48.680;8.894;2022-11-15T12:08:15;12.40;99.90
17385;DHT22;8810;48.680;8.894;2022-11-15T12:10:52;12.40;99.90
17385;DHT22;8810;48.680;8.894;2022-11-15T12:13:25;12.40;99.90
17385;DHT22;8810;48.680;8.894;2022-11-15T12:15:57;12.40;99.90
17385;DHT22;8810;48.680;8.894;2022-11-15T12:18:28;12.40;99.90
17385;DHT22;8810;48.680;8.894;2022-11-15T12:20:58;12.40;99.90
17385;DHT22;8810;48.680;8.894;2022-11-15T12:23:29;12.40;99.90
17385;DHT22;8810;48.680;8.894;2022-11-15T12:26:01;12.40;99.90
17385;DHT22;8810;48.680;8.894;2022-11-15T12:28:35;12.40;99.90
17385;DHT22;8810;48.680;8.894;2022-11-15T12:31:11;12.40;99.90
17385;DHT22;8810;48.680;8.894;2022-11-15T12:33:42;12.40;99.90
17385;DHT22;8810;48.680;8.894;2022-11-15T12:36:11;12.40;99.90
17385;DHT22;8810;48.680;8.894;2022-11-15T12:38:53;12.40;99.90
17385;DHT22;8810;48.680;8.894;2022-11-15T12:41:22;12.40;99.90
17385;DHT22;8810;48.680;8.894;2022-11-15T12:43:49;12.40;99.90
17385;DHT22;8810;48.680;8.894;2022-11-15T12:46:23;12.40;99.90
17385;DHT22;8810;48.680;8.894;2022-11-15T12:52:08;12.50;99.90
17385;DHT22;8810;48.680;8.894;2022-11-15T12:54:52;12.50;99.90
17385;DHT22;8810;48.680;8.894;2022-11-15T12:57:41;12.50;99.90
17385;DHT22;8810;48.680;8.894;2022-11-15T13:00:37;12.60;99.90
17385;DHT22;8810;48.680;8.894;2022-11-15T13:03:31;12.50;99.90
17385;DHT22;8810;48.680;8.894;2022-11-15T13:06:09;12.60;99.90
17385;DHT22;8810;48.680;8.894;2022-11-15T13:08:49;12.70;99.90
17385;DHT22;8810;48.680;8.894;2022-11-15T13:11:42;12.70;99.90
17385;DHT22;8810;48.680;8.894;2022-11-15T13:16:37;12.80;99.90
17385;DHT22;8810;48.680;8.894;2022-11-15T13:19:04;12.80;99.90
17385;DHT22;8810;48.680;8.894;2022-11-15T13:21:32;12.80;99.90
17385;DHT22;8810;48.680;8.894;2022-11-15T13:24:17;12.80;99.90
17385;DHT22;8810;48.680;8.894;2022-11-15T13:26:44;12.70;99.90
17385;DHT22;8810;48.680;8.894;2022-11-15T13:29:16;12.70;99.90
17385;DHT22;8810;48.680;8.894;2022-11-15T13:31:44;12.70;99.90
17385;DHT22;8810;48.680;8.894;2022-11-15T13:34:23;12.70;99.90
17385;DHT22;8810;48.680;8.894;2022-11-15T13:36:52;12.70;99.90
17385;DHT22;8810;48.680;8.894;2022-11-15T13:39:27;12.70;99.90
17385;DHT22;8810;48.680;8.894;2022-11-15T13:41:54;12.60;99.90
17385;DHT22;8810;48.680;8.894;2022-11-15T13:44:22;12.60;99.90
17385;DHT22;8810;48.680;8.894;2022-11-15T13:47:01;12.60;99.90
17385;DHT22;8810;48.680;8.894;2022-11-15T13:49:30;12.50;99.90
17385;DHT22;8810;48.680;8.894;2022-11-15T13:52:00;12.50;99.90
17385;DHT22;8810;48.680;8.894;2022-11-15T13:54:30;12.40;99.90
17385;DHT22;8810;48.680;8.894;2022-11-15T13:57:01;12.40;99.90
17385;DHT22;8810;48.680;8.894;2022-11-15T13:59:30;12.40;99.90
17385;DHT22;8810;48.680;8.894;2022-11-15T14:02:01;12.40;99.90
17385;DHT22;8810;48.680;8.894;2022-11-15T14:04:29;12.40;99.90
17385;DHT22;8810;48.680;8.894;2022-11-15T14:07:01;12.40;99.90
17385;DHT22;8810;48.680;8.894;2022-11-15T14:09:34;12.40;99.90
17385;DHT22;8810;48.680;8.894;2022-11-15T14:12:25;12.40;99.90
17385;DHT22;8810;48.680;8.894;2022-11-15T14:14:52;12.50;99.90
17385;DHT22;8810;48.680;8.894;2022-11-15T14:17:21;12.50;99.90
17385;DHT22;8810;48.680;8.894;2022-11-15T14:19:58;12.60;99.90
17385;DHT22;8810;48.680;8.894;2022-11-15T14:22:28;12.60;99.90
17385;DHT22;8810;48.680;8.894;2022-11-15T14:25:15;12.60;99.90
17385;DHT22;8810;48.680;8.894;2022-11-15T14:27:43;12.60;99.90
17385;DHT22;8810;48.680;8.894;2022-11-15T14:30:14;12.60;99.90
17385;DHT22;8810;48.680;8.894;2022-11-15T14:32:44;12.60;99.90
17385;DHT22;8810;48.680;8.894;2022-11-15T14:35:15;12.50;99.90
17385;DHT22;8810;48.680;8.894;2022-11-15T14:37:44;12.50;99.90
17385;DHT22;8810;48.680;8.894;2022-11-15T14:40:14;12.50;99.90
17385;DHT22;8810;48.680;8.894;2022-11-15T14:42:41;12.50;99.90
17385;DHT22;8810;48.680;8.894;2022-11-15T14:45:12;12.40;99.90
17385;DHT22;8810;48.680;8.894;2022-11-15T14:47:39;12.40;99.90
17385;DHT22;8810;48.680;8.894;2022-11-15T14:50:10;12.40;99.90
17385;DHT22;8810;48.680;8.894;2022-11-15T14:52:37;12.40;99.90
17385;DHT22;8810;48.680;8.894;2022-11-15T14:55:14;12.40;99.90
17385;DHT22;8810;48.680;8.894;2022-11-15T14:57:42;12.30;99.90
17385;DHT22;8810;48.680;8.894;2022-11-15T15:00:10;12.30;99.90
17385;DHT22;8810;48.680;8.894;2022-11-15T15:02:37;12.30;99.90
17385;DHT22;8810;48.680;8.894;2022-11-15T15:05:13;12.30;99.90
17385;DHT22;8810;48.680;8.894;2022-11-15T15:07:40;12.20;99.90
17385;DHT22;8810;48.680;8.894;2022-11-15T15:10:10;12.20;99.90
17385;DHT22;8810;48.680;8.894;2022-11-15T15:12:37;12.10;99.90
17385;DHT22;8810;48.680;8.894;2022-11-15T15:15:05;12.10;99.90
17385;DHT22;8810;48.680;8.894;2022-11-15T15:17:32;12.00;99.90
17385;DHT22;8810;48.680;8.894;2022-11-15T15:19:59;12.00;99.90
17385;DHT22;8810;48.680;8.894;2022-11-15T15:22:28;12.00;99.90
17385;DHT22;8810;48.680;8.894;2022-11-15T15:24:55;12.00;99.90
17385;DHT22;8810;48.680;8.894;2022-11-15T15:27:24;11.90;99.90
17385;DHT22;8810;48.680;8.894;2022-11-15T15:29:50;11.90;99.90
17385;DHT22;8810;48.680;8.894;2022-11-15T15:32:17;11.90;99.90
17385;DHT22;8810;48.680;8.894;2022-11-15T15:34:44;11.80;99.90
17385;DHT22;8810;48.680;8.894;2022-11-15T15:37:22;11.80;99.90
17385;DHT22;8810;48.680;8.894;2022-11-15T15:39:50;11.80;99.90
17385;DHT22;8810;48.680;8.894;2022-11-15T15:42:18;11.70;99.90
17385;DHT22;8810;48.680;8.894;2022-11-15T15:44:46;11.70;99.90
17385;DHT22;8810;48.680;8.894;2022-11-15T15:47:16;11.70;99.90
17385;DHT22;8810;48.680;8.894;2022-11-15T15:49:44;11.70;99.90
17385;DHT22;8810;48.680;8.894;2022-11-15T15:52:11;11.60;99.90
17385;DHT22;8810;48.680;8.894;2022-11-15T15:54:38;11.60;99.90
17385;DHT22;8810;48.680;8.894;2022-11-15T15:57:06;11.60;99.90
17385;DHT22;8810;48.680;8.894;2022-11-15T15:59:33;11.60;99.90
17385;DHT22;8810;48.680;8.894;2022-11-15T16:02:01;11.60;99.90
17385;DHT22;8810;48.680;8.894;2022-11-15T16:04:28;11.60;99.90
17385;DHT22;8810;48.680;8.894;2022-11-15T16:06:58;11.50;99.90
17385;DHT22;8810;48.680;8.894;2022-11-15T16:09:25;11.50;99.90
17385;DHT22;8810;48.680;8.894;2022-11-15T16:12:06;11.50;99.90
17385;DHT22;8810;48.680;8.894;2022-11-15T16:14:33;11.50;99.90
17385;DHT22;8810;48.680;8.894;2022-11-15T16:17:02;11.40;99.90
17385;DHT22;8810;48.680;8.894;2022-11-15T16:19:28;11.40;99.90
17385;DHT22;8810;48.680;8.894;2022-11-15T16:21:55;11.40;99.90
17385;DHT22;8810;48.680;8.894;2022-11-15T16:24:22;11.40;99.90
17385;DHT22;8810;48.680;8.894;2022-11-15T16:26:50;11.30;99.90